createdAt,value
2018-11-13T00:01:55.581Z,12.20
2018-11-13T00:04:24.290Z,9.97
2018-11-13T00:06:52.599Z,14.33
2018-11-13T00:09:21.656Z,16.97
2018-11-13T00:11:50.337Z,9.53
2018-11-13T00:14:18.641Z,9.27
2018-11-13T00:16:47.394Z,14.63
2018-11-13T00:19:16.233Z,10.03
2018-11-13T00:21:44.614Z,16.30
2018-11-13T00:24:13.132Z,19.33
2018-11-13T00:26:41.985Z,37.27
2018-11-13T00:29:10.572Z,15.70
2018-11-13T00:31:39.401Z,12.67
2018-11-13T00:34:08.192Z,16.83
2018-11-13T00:36:36.505Z,21.20
2018-11-13T00:39:09.291Z,15.03
2018-11-13T00:41:37.517Z,19.30
2018-11-13T00:44:06.600Z,15.33
2018-11-13T00:46:36.069Z,13.13
2018-11-13T00:49:04.687Z,13.97
2018-11-13T00:51:32.995Z,14.10
2018-11-13T00:54:01.998Z,17.53
2018-11-13T00:56:30.603Z,23.03
2018-11-13T00:58:59.067Z,17.70
2018-11-13T01:01:28.033Z,13.07
2018-11-13T01:03:56.349Z,16.70
2018-11-13T01:06:24.871Z,19.03
2018-11-13T01:08:53.766Z,19.03
2018-11-13T01:11:22.061Z,19.80
2018-11-13T01:13:50.599Z,12.23
2018-11-13T01:16:19.978Z,13.90
2018-11-13T01:18:48.303Z,15.27
2018-11-13T01:21:16.585Z,14.83
2018-11-13T01:23:46.039Z,14.03
2018-11-13T01:26:14.406Z,12.47
2018-11-13T01:28:42.886Z,13.13
2018-11-13T01:31:12.258Z,15.13
2018-11-13T01:33:40.828Z,14.33
2018-11-13T01:36:09.138Z,18.03
2018-11-13T01:38:38.340Z,15.77
2018-11-13T01:41:06.781Z,19.67
2018-11-13T01:43:35.402Z,23.60
2018-11-13T01:46:04.325Z,29.37
2018-11-13T01:48:32.829Z,39.57
2018-11-13T01:51:01.435Z,25.20
2018-11-13T01:53:30.817Z,20.83
2018-11-13T01:55:59.718Z,18.67
2018-11-13T01:58:28.118Z,19.17
2018-11-13T02:00:57.083Z,21.40
2018-11-13T02:03:25.428Z,19.93
2018-11-13T02:05:53.754Z,15.83
2018-11-13T02:08:22.809Z,22.87
2018-11-13T02:10:51.352Z,27.23
2018-11-13T02:13:19.857Z,33.43
2018-11-13T02:15:48.877Z,26.93
2018-11-13T02:18:17.351Z,17.47
2018-11-13T02:20:45.705Z,12.93
2018-11-13T02:23:14.949Z,18.87
2018-11-13T02:25:43.522Z,24.73
2018-11-13T02:28:11.866Z,26.77
2018-11-13T02:30:40.686Z,28.23
2018-11-13T02:33:09.012Z,30.00
2018-11-13T02:35:37.505Z,30.73
2018-11-13T02:38:06.429Z,15.67
2018-11-13T02:40:34.908Z,13.50
2018-11-13T02:43:03.330Z,13.93
2018-11-13T02:45:32.488Z,16.87
2018-11-13T02:48:01.201Z,13.83
2018-11-13T02:50:29.894Z,22.40
2018-11-13T02:52:58.708Z,559.83
2018-11-13T02:55:27.273Z,33.63
2018-11-13T02:57:55.615Z,62.03
2018-11-13T03:00:24.884Z,22.80
2018-11-13T03:02:53.206Z,19.00
2018-11-13T03:05:22.244Z,39.37
2018-11-13T03:07:51.585Z,91.00
2018-11-13T03:10:20.497Z,92.83
2018-11-13T03:12:48.878Z,77.13
2018-11-13T03:15:18.848Z,22.40
2018-11-13T03:17:47.186Z,16.20
2018-11-13T03:20:16.765Z,22.87
2018-11-13T03:22:46.118Z,15.30
2018-11-13T03:25:17.885Z,19.70
2018-11-13T03:27:46.335Z,13.93
2018-11-13T03:30:19.426Z,11.07
2018-11-13T03:32:48.420Z,14.13
2018-11-13T03:35:16.738Z,20.23
2018-11-13T03:37:45.295Z,34.13
2018-11-13T03:40:14.645Z,24.53
2018-11-13T03:42:43.814Z,36.67
2018-11-13T03:45:13.349Z,26.77
2018-11-13T03:47:41.697Z,130.10
2018-11-13T03:50:12.837Z,148.07
2018-11-13T03:52:42.339Z,57.80
2018-11-13T03:55:11.503Z,129.80
2018-11-13T03:57:41.012Z,95.97
2018-11-13T04:00:13.031Z,387.67
2018-11-13T04:02:41.776Z,299.23
2018-11-13T04:05:13.889Z,199.67
2018-11-13T04:07:43.605Z,278.73
2018-11-13T04:10:13.155Z,349.27
2018-11-13T04:12:42.246Z,427.47
2018-11-13T04:15:12.361Z,207.07
2018-11-13T04:17:41.129Z,277.67
2018-11-13T04:20:11.382Z,73.73
2018-11-13T04:22:40.209Z,182.33
2018-11-13T04:25:08.563Z,206.93
2018-11-13T04:27:37.239Z,311.83
2018-11-13T04:33:07.861Z,147.37
2018-11-13T04:35:36.162Z,325.37
2018-11-13T04:38:04.623Z,390.57
2018-11-13T04:40:34.077Z,315.90
2018-11-13T04:43:02.441Z,84.57
2018-11-13T04:45:30.744Z,32.83
2018-11-13T04:47:59.946Z,33.67
2018-11-13T04:50:28.253Z,26.97
2018-11-13T04:52:56.579Z,24.07
2018-11-13T04:55:25.883Z,24.67
2018-11-13T04:57:54.283Z,30.00
2018-11-13T05:00:23.650Z,22.47
2018-11-13T05:02:53.066Z,23.30
2018-11-13T05:05:22.258Z,23.33
2018-11-13T05:07:51.905Z,28.67
2018-11-13T05:10:21.611Z,29.53
2018-11-13T05:12:50.143Z,18.63
2018-11-13T05:15:18.654Z,18.87
2018-11-13T05:17:48.044Z,15.37
2018-11-13T05:20:17.107Z,21.10
2018-11-13T05:22:45.445Z,15.03
2018-11-13T05:25:15.610Z,15.07
2018-11-13T05:27:44.217Z,19.83
2018-11-13T05:30:17.423Z,20.47
2018-11-13T05:32:46.002Z,19.23
2018-11-13T05:35:15.540Z,24.00
2018-11-13T05:37:44.768Z,33.80
2018-11-13T05:40:16.069Z,36.67
2018-11-13T05:42:44.576Z,24.53
2018-11-13T05:45:14.234Z,43.13
2018-11-13T05:47:42.841Z,45.33
2018-11-13T05:50:12.729Z,42.17
2018-11-13T05:52:42.668Z,47.40
2018-11-13T05:55:11.842Z,46.87
2018-11-13T05:57:40.307Z,51.50
2018-11-13T06:00:13.406Z,40.00
2018-11-13T06:02:41.730Z,51.23
2018-11-13T06:05:10.757Z,54.40
2018-11-13T06:07:39.857Z,51.43
2018-11-13T06:10:09.284Z,60.97
2018-11-13T06:12:37.603Z,59.37
2018-11-13T06:15:07.333Z,63.53
2018-11-13T06:17:35.648Z,65.07
2018-11-13T06:20:04.642Z,75.47
2018-11-13T06:22:33.835Z,85.43
2018-11-13T06:25:02.128Z,87.87
2018-11-13T06:27:30.502Z,92.67
2018-11-13T06:30:00.016Z,68.90
2018-11-13T06:32:28.361Z,57.57
2018-11-13T06:34:56.639Z,59.13
2018-11-13T06:37:25.793Z,56.40
2018-11-13T06:39:54.154Z,53.73
2018-11-13T06:42:22.816Z,58.57
2018-11-13T06:44:51.964Z,66.83
2018-11-13T06:47:20.466Z,65.70
2018-11-13T06:49:48.829Z,52.27
2018-11-13T06:52:18.026Z,55.10
2018-11-13T06:55:02.887Z,55.83
2018-11-13T06:57:32.636Z,36.70
2018-11-13T07:00:01.667Z,41.97
2018-11-13T07:02:30.086Z,33.87
2018-11-13T07:04:59.107Z,35.77
2018-11-13T07:07:27.461Z,38.07
2018-11-13T07:09:55.810Z,53.60
2018-11-13T07:12:24.686Z,48.43
2018-11-13T07:14:53.011Z,43.77
2018-11-13T07:17:21.344Z,43.03
2018-11-13T07:19:50.631Z,50.90
2018-11-13T07:22:19.016Z,47.90
2018-11-13T07:24:47.386Z,39.83
2018-11-13T07:27:16.539Z,49.00
2018-11-13T07:29:44.952Z,50.33
2018-11-13T07:32:13.407Z,49.13
2018-11-13T07:34:42.411Z,51.73
2018-11-13T07:37:10.748Z,43.80
2018-11-13T07:39:39.050Z,47.03
2018-11-13T07:42:08.017Z,38.70
2018-11-13T07:44:36.523Z,45.57
2018-11-13T07:47:05.289Z,44.43
2018-11-13T07:49:34.353Z,34.97
2018-11-13T07:52:02.644Z,39.27
2018-11-13T07:54:31.264Z,35.07
2018-11-13T07:57:00.404Z,38.73
2018-11-13T07:59:29.024Z,36.67
2018-11-13T08:01:57.433Z,32.93
2018-11-13T08:04:26.429Z,35.37
2018-11-13T08:06:54.724Z,43.57
2018-11-13T08:09:23.168Z,40.43
2018-11-13T08:11:52.229Z,39.17
2018-11-13T08:14:20.707Z,40.67
2018-11-13T08:16:49.624Z,36.10
2018-11-13T08:19:18.537Z,35.30
2018-11-13T08:21:46.951Z,41.50
2018-11-13T08:24:15.464Z,33.93
2018-11-13T08:26:44.629Z,27.23
2018-11-13T08:29:12.977Z,29.37
2018-11-13T08:31:41.605Z,34.77
2018-11-13T08:34:10.838Z,24.20
2018-11-13T08:36:39.462Z,24.33
2018-11-13T08:39:10.054Z,25.47
2018-11-13T08:41:39.293Z,25.10
2018-11-13T08:44:08.602Z,32.17
2018-11-13T08:46:36.946Z,18.30
2018-11-13T08:49:06.164Z,21.37
2018-11-13T08:51:34.714Z,15.37
2018-11-13T08:54:03.015Z,18.73
2018-11-13T08:56:31.611Z,18.07
2018-11-13T08:59:00.130Z,17.47
2018-11-13T09:01:28.381Z,18.83
2018-11-13T09:03:57.351Z,14.50
2018-11-13T09:06:26.118Z,23.60
2018-11-13T09:08:54.819Z,21.13
2018-11-13T09:11:23.929Z,19.77
2018-11-13T09:13:52.169Z,20.80
2018-11-13T09:16:20.460Z,27.47
2018-11-13T09:18:50.038Z,18.60
2018-11-13T09:21:18.301Z,19.70
2018-11-13T09:23:46.640Z,17.07
2018-11-13T09:26:15.976Z,19.93
2018-11-13T09:28:44.257Z,24.30
2018-11-13T09:31:12.686Z,21.90
2018-11-13T09:33:42.055Z,28.87
2018-11-13T09:36:10.348Z,23.90
2018-11-13T09:38:38.902Z,25.23
2018-11-13T09:41:08.156Z,30.37
2018-11-13T09:43:36.487Z,28.03
2018-11-13T09:46:05.081Z,24.77
2018-11-13T09:48:33.831Z,30.37
2018-11-13T09:51:02.173Z,23.83
2018-11-13T09:53:30.700Z,23.30
2018-11-13T09:55:59.731Z,19.23
2018-11-13T09:58:28.487Z,19.37
2018-11-13T10:00:56.671Z,13.97
2018-11-13T10:03:26.061Z,16.80
2018-11-13T10:05:54.289Z,17.60
2018-11-13T10:08:22.688Z,22.53
2018-11-13T10:10:51.707Z,12.97
2018-11-13T10:13:20.051Z,22.63
2018-11-13T10:15:48.731Z,15.43
2018-11-13T10:18:18.789Z,20.23
2018-11-13T10:20:46.856Z,16.30
2018-11-13T10:23:15.419Z,31.63
2018-11-13T10:25:44.580Z,13.97
2018-11-13T10:28:13.013Z,21.93
2018-11-13T10:30:41.539Z,23.33
2018-11-13T10:33:10.774Z,13.93
2018-11-13T10:35:39.099Z,12.33
2018-11-13T10:38:07.750Z,16.70
2018-11-13T10:40:36.746Z,11.30
2018-11-13T10:43:05.465Z,17.07
2018-11-13T10:45:34.017Z,14.23
2018-11-13T10:48:03.195Z,17.13
2018-11-13T10:50:31.765Z,16.50
2018-11-13T10:53:00.285Z,15.20
2018-11-13T10:55:29.400Z,15.93
2018-11-13T10:57:57.774Z,10.57
2018-11-13T11:00:28.176Z,15.37
2018-11-13T11:03:02.325Z,16.93
2018-11-13T11:05:30.890Z,19.50
2018-11-13T11:07:59.261Z,21.37
2018-11-13T11:10:28.109Z,12.37
2018-11-13T11:12:57.003Z,14.90
2018-11-13T11:15:25.281Z,18.47
2018-11-13T11:17:54.017Z,11.13
2018-11-13T11:20:22.797Z,9.57
2018-11-13T11:22:51.233Z,16.27
2018-11-13T11:25:20.142Z,16.53
2018-11-13T11:27:48.863Z,15.40
2018-11-13T11:30:18.786Z,18.83
2018-11-13T11:32:47.237Z,18.73
2018-11-13T11:35:15.957Z,18.03
2018-11-13T11:37:44.503Z,18.17
2018-11-13T11:40:13.401Z,13.97
2018-11-13T11:42:42.179Z,17.57
2018-11-13T11:45:12.678Z,22.70
2018-11-13T11:47:41.468Z,22.37
2018-11-13T11:50:11.070Z,34.00
2018-11-13T11:52:39.418Z,19.67
2018-11-13T11:55:08.432Z,18.73
2018-11-13T11:57:37.099Z,23.47
2018-11-13T12:00:09.178Z,21.50
2018-11-13T12:02:37.863Z,19.13
2018-11-13T12:05:07.190Z,22.27
2018-11-13T12:07:36.768Z,20.87
2018-11-13T12:10:07.242Z,23.00
2018-11-13T12:12:35.625Z,16.97
2018-11-13T12:15:04.643Z,22.87
2018-11-13T12:17:33.078Z,20.17
2018-11-13T12:20:01.806Z,27.70
2018-11-13T12:22:30.721Z,18.03
2018-11-13T12:24:59.106Z,18.43
2018-11-13T12:27:27.744Z,20.67
2018-11-13T12:29:56.466Z,18.17
2018-11-13T12:32:24.793Z,13.60
2018-11-13T12:34:53.493Z,22.97
2018-11-13T12:37:22.673Z,20.47
2018-11-13T12:39:50.972Z,14.53
2018-11-13T12:42:20.184Z,17.27
2018-11-13T12:44:49.036Z,19.20
2018-11-13T12:47:17.431Z,16.83
2018-11-13T12:49:46.239Z,15.57
2018-11-13T12:52:16.329Z,20.53
2018-11-13T12:54:45.248Z,18.37
2018-11-13T12:57:14.254Z,21.60
2018-11-13T12:59:42.681Z,20.83
2018-11-13T13:02:11.850Z,18.57
2018-11-13T13:04:40.284Z,17.83
2018-11-13T13:07:09.811Z,19.33
2018-11-13T13:09:38.739Z,16.57
2018-11-13T13:12:08.258Z,14.03
2018-11-13T13:14:36.938Z,19.17
2018-11-13T13:17:05.714Z,13.13
2018-11-13T13:19:34.397Z,15.83
2018-11-13T13:22:03.119Z,12.30
2018-11-13T13:24:31.468Z,13.80
2018-11-13T13:27:00.161Z,23.57
2018-11-13T13:29:29.034Z,16.90
2018-11-13T13:31:57.596Z,21.20
2018-11-13T13:34:26.323Z,14.63
2018-11-13T13:36:54.725Z,18.63
2018-11-13T13:39:23.019Z,19.63
2018-11-13T13:41:52.013Z,13.33
2018-11-13T13:44:20.552Z,21.93
2018-11-13T13:46:49.294Z,16.60
2018-11-13T13:49:17.638Z,22.10
2018-11-13T13:51:46.597Z,20.00
2018-11-13T13:54:14.950Z,22.43
2018-11-13T13:56:43.636Z,24.63
2018-11-13T13:59:12.422Z,20.33
2018-11-13T14:01:40.874Z,19.70
2018-11-13T14:04:09.740Z,25.83
2018-11-13T14:06:38.551Z,25.30
2018-11-13T14:09:09.614Z,20.13
2018-11-13T14:11:38.351Z,21.93
2018-11-13T14:14:07.369Z,21.50
2018-11-13T14:16:36.024Z,21.40
2018-11-13T14:19:05.018Z,20.10
2018-11-13T14:21:33.748Z,17.10
2018-11-13T14:24:02.090Z,18.57
2018-11-13T14:26:31.360Z,21.07
2018-11-13T14:28:59.998Z,14.27
2018-11-13T14:31:28.700Z,15.17
2018-11-13T14:33:57.716Z,20.23
2018-11-13T14:36:26.308Z,17.83
2018-11-13T14:38:54.660Z,19.90
2018-11-13T14:41:23.298Z,12.23
2018-11-13T14:43:51.724Z,13.07
2018-11-13T14:46:20.225Z,22.87
2018-11-13T14:48:48.751Z,17.97
2018-11-13T14:51:17.479Z,19.60
2018-11-13T14:53:45.935Z,15.77
2018-11-13T14:56:14.650Z,21.30
2018-11-13T14:58:44.195Z,19.83
2018-11-13T15:01:12.548Z,18.00
2018-11-13T15:03:41.373Z,13.80
2018-11-13T15:06:10.832Z,13.17
2018-11-13T15:08:39.169Z,15.70
2018-11-13T15:11:07.999Z,10.63
2018-11-13T15:13:37.034Z,20.20
2018-11-13T15:16:05.774Z,15.47
2018-11-13T15:18:34.770Z,9.90
2018-11-13T15:21:03.413Z,15.40
2018-11-13T15:23:31.767Z,13.00
2018-11-13T15:26:00.537Z,21.07
2018-11-13T15:28:29.300Z,10.93
2018-11-13T15:30:57.680Z,17.63
2018-11-13T15:33:26.601Z,11.83
2018-11-13T15:35:55.962Z,9.70
2018-11-13T15:38:24.294Z,14.37
2018-11-13T15:40:53.028Z,24.77
2018-11-13T15:43:21.867Z,14.17
2018-11-13T15:45:50.193Z,14.37
2018-11-13T15:48:18.931Z,15.43
2018-11-13T15:50:47.615Z,17.27
2018-11-13T15:53:16.017Z,9.63
2018-11-13T15:55:44.630Z,15.43
2018-11-13T15:58:13.403Z,14.33
2018-11-13T16:00:42.898Z,14.23
2018-11-13T16:03:14.568Z,21.77
2018-11-13T16:05:45.195Z,18.10
2018-11-13T16:08:13.570Z,13.90
2018-11-13T16:10:42.623Z,18.03
2018-11-13T16:13:11.188Z,14.73
2018-11-13T16:15:40.135Z,13.57
2018-11-13T16:18:09.850Z,16.20
2018-11-13T16:20:38.391Z,14.33
2018-11-13T16:23:07.888Z,14.83
2018-11-13T16:25:36.953Z,11.53
2018-11-13T16:28:05.481Z,17.13
2018-11-13T16:30:35.723Z,11.63
2018-11-13T16:33:04.247Z,15.10
2018-11-13T16:35:33.508Z,16.03
2018-11-13T16:38:03.772Z,13.83
2018-11-13T16:40:32.861Z,19.93
2018-11-13T16:43:01.682Z,15.20
2018-11-13T16:45:31.424Z,12.90
2018-11-13T16:48:00.552Z,10.23
2018-11-13T16:50:39.088Z,14.37
2018-11-13T16:53:08.055Z,15.57
2018-11-13T16:55:42.620Z,16.23
2018-11-13T16:58:12.426Z,14.93
2018-11-13T17:00:40.885Z,9.97
2018-11-13T17:03:10.049Z,13.87
2018-11-13T17:05:39.034Z,16.33
2018-11-13T17:08:07.343Z,12.87
2018-11-13T17:10:39.785Z,11.13
2018-11-13T17:13:08.791Z,13.37
2018-11-13T17:15:37.301Z,13.97
2018-11-13T17:18:06.776Z,12.70
2018-11-13T17:20:35.250Z,12.43
2018-11-13T17:23:03.930Z,9.10
2018-11-13T17:25:35.146Z,22.17
2018-11-13T17:28:04.294Z,11.37
2018-11-13T17:30:33.874Z,11.63
2018-11-13T17:33:03.791Z,10.40
2018-11-13T17:35:32.657Z,8.47
2018-11-13T17:38:01.940Z,9.37
2018-11-13T17:40:32.136Z,11.63
2018-11-13T17:43:01.868Z,6.90
2018-11-13T17:45:31.497Z,7.20
2018-11-13T17:48:00.208Z,8.47
2018-11-13T17:50:31.136Z,6.50
2018-11-13T17:52:59.761Z,7.50
2018-11-13T17:55:28.161Z,8.53
2018-11-13T17:58:00.993Z,11.10
2018-11-13T18:00:32.350Z,11.07
2018-11-13T18:03:01.443Z,13.10
2018-11-13T18:05:30.484Z,8.90
2018-11-13T18:08:00.124Z,19.77
2018-11-13T18:10:29.752Z,12.30
2018-11-13T18:12:58.097Z,7.30
2018-11-13T18:15:28.494Z,7.83
2018-11-13T18:17:58.305Z,13.83
2018-11-13T18:20:29.381Z,16.40
2018-11-13T18:22:57.987Z,11.53
2018-11-13T18:25:27.346Z,14.63
2018-11-13T18:27:57.485Z,19.67
2018-11-13T18:30:28.796Z,14.13
2018-11-13T18:32:59.116Z,11.10
2018-11-13T18:35:28.723Z,9.90
2018-11-13T18:37:58.341Z,14.83
2018-11-13T18:40:27.198Z,9.33
2018-11-13T18:42:56.886Z,7.60
2018-11-13T18:45:28.987Z,13.47
2018-11-13T18:47:57.515Z,8.77
2018-11-13T18:50:28.658Z,8.63
2018-11-13T18:52:57.656Z,12.00
2018-11-13T18:55:26.171Z,13.03
2018-11-13T18:57:54.985Z,12.07
2018-11-13T19:00:25.842Z,11.03
2018-11-13T19:02:54.214Z,13.20
2018-11-13T19:05:23.778Z,9.20
2018-11-13T19:07:52.754Z,14.90
2018-11-13T19:10:30.520Z,10.43
2018-11-13T19:13:00.006Z,15.37
2018-11-13T19:15:29.222Z,21.03
2018-11-13T19:17:57.606Z,17.30
2018-11-13T19:20:26.671Z,14.27
2018-11-13T19:22:55.410Z,16.47
2018-11-13T19:25:26.198Z,16.20
2018-11-13T19:27:55.981Z,12.53
2018-11-13T19:30:24.369Z,27.40
2018-11-13T19:32:53.126Z,16.03
2018-11-13T19:35:22.184Z,18.93
2018-11-13T19:37:50.440Z,19.93
2018-11-13T19:40:20.299Z,17.50
2018-11-13T19:42:50.058Z,13.10
2018-11-13T19:45:18.990Z,18.07
2018-11-13T19:47:47.506Z,19.13
2018-11-13T19:50:17.993Z,16.80
2018-11-13T19:52:46.757Z,19.10
2018-11-13T19:55:16.683Z,14.20
2018-11-13T19:57:45.758Z,16.13
2018-11-13T20:00:19.119Z,15.37
2018-11-13T20:02:49.029Z,13.00
2018-11-13T20:05:17.709Z,12.30
2018-11-13T20:07:46.339Z,15.37
2018-11-13T20:10:16.703Z,14.67
2018-11-13T20:12:45.966Z,12.53
2018-11-13T20:15:14.401Z,19.60
2018-11-13T20:17:43.216Z,14.00
2018-11-13T20:20:16.843Z,18.77
2018-11-13T20:22:45.812Z,17.63
2018-11-13T20:25:15.390Z,16.90
2018-11-13T20:27:43.725Z,17.37
2018-11-13T20:30:17.968Z,19.60
2018-11-13T20:32:46.549Z,13.20
2018-11-13T20:35:14.924Z,10.60
2018-11-13T20:37:45.365Z,18.63
2018-11-13T20:40:16.415Z,12.33
2018-11-13T20:42:45.854Z,22.57
2018-11-13T20:45:14.681Z,19.50
2018-11-13T20:47:43.484Z,15.33
2018-11-13T20:50:13.675Z,21.10
2018-11-13T20:52:42.283Z,21.70
2018-11-13T20:55:11.148Z,21.83
2018-11-13T20:57:39.702Z,20.97
2018-11-13T21:00:11.397Z,15.57
2018-11-13T21:02:39.735Z,16.80
2018-11-13T21:05:08.730Z,14.67
2018-11-13T21:07:37.833Z,16.30
2018-11-13T21:10:08.713Z,13.33
2018-11-13T21:12:37.652Z,11.43
2018-11-13T21:15:08.252Z,15.93
2018-11-13T21:17:37.063Z,9.77
2018-11-13T21:20:07.427Z,12.73
2018-11-13T21:22:36.216Z,21.97
2018-11-13T21:25:05.304Z,13.47
2018-11-13T21:27:34.372Z,13.77
2018-11-13T21:30:03.260Z,10.97
2018-11-13T21:32:31.568Z,15.67
2018-11-13T21:35:00.567Z,10.13
2018-11-13T21:37:29.395Z,10.67
2018-11-13T21:39:57.888Z,14.03
2018-11-13T21:42:26.932Z,14.30
2018-11-13T21:44:55.710Z,15.40
2018-11-13T21:47:24.964Z,13.47
2018-11-13T21:49:54.587Z,13.00
2018-11-13T21:52:23.300Z,11.67
2018-11-13T21:54:51.645Z,17.00
2018-11-13T21:57:20.317Z,14.20
2018-11-13T21:59:48.888Z,15.63
2018-11-13T22:02:17.198Z,11.60
2018-11-13T22:04:47.106Z,15.50
2018-11-13T22:07:15.867Z,12.47
2018-11-13T22:09:44.267Z,11.50
2018-11-13T22:12:12.853Z,12.27
2018-11-13T22:14:41.309Z,12.70
2018-11-13T22:17:10.087Z,17.53
2018-11-13T22:19:38.845Z,18.07
2018-11-13T22:22:07.559Z,8.70
2018-11-13T22:24:36.113Z,14.17
2018-11-13T22:27:05.008Z,12.40
2018-11-13T22:29:33.486Z,8.60
2018-11-13T22:32:02.050Z,21.33
2018-11-13T22:34:30.885Z,10.80
2018-11-13T22:36:59.625Z,14.23
2018-11-13T22:39:28.069Z,15.77
2018-11-13T22:41:56.941Z,14.00
2018-11-13T22:44:25.944Z,9.60
2018-11-13T22:46:54.090Z,10.47
2018-11-13T22:49:22.787Z,13.77
2018-11-13T22:51:51.562Z,13.87
2018-11-13T22:54:19.847Z,16.43
2018-11-13T22:56:48.750Z,14.23
2018-11-13T22:59:17.789Z,20.17
2018-11-13T23:01:46.397Z,14.23
2018-11-13T23:04:14.953Z,15.07
2018-11-13T23:06:43.843Z,17.60
2018-11-13T23:09:13.382Z,15.83
2018-11-13T23:11:42.263Z,10.27
2018-11-13T23:14:11.431Z,12.23
2018-11-13T23:16:39.818Z,10.33
2018-11-13T23:19:08.440Z,11.77
2018-11-13T23:21:37.489Z,16.27
2018-11-13T23:24:05.813Z,10.03
2018-11-13T23:26:34.863Z,10.63
2018-11-13T23:29:03.389Z,16.40
2018-11-13T23:31:31.701Z,15.43
2018-11-13T23:34:00.676Z,16.10
2018-11-13T23:36:29.598Z,13.97
2018-11-13T23:38:57.921Z,13.70
2018-11-13T23:41:26.968Z,11.47
2018-11-13T23:43:55.511Z,15.60
2018-11-13T23:46:24.031Z,19.37
2018-11-13T23:48:53.233Z,12.90
2018-11-13T23:51:21.861Z,13.13
2018-11-13T23:53:50.619Z,9.77
2018-11-13T23:56:19.381Z,13.40
2018-11-13T23:58:47.943Z,10.00
